Terminal Aerodrome Forecast
Issued by NWS North Platte, NE

Home | Current Version | Previous Version | Text Only | Print | Product List | Glossary On
Versions: 1 2 3 4 5 6 7 8 9 10 11 12 13 14 15
000
FTUS43 KLBF 221900 AAA
TAFLBF
TAF AMD
KLBF 221901Z 2219/2318 16014G20KT P6SM SCT050 SCT070 OVC110
      TEMPO 2219/2223 5SM -SHRA OVC035
     FM230000 15014KT 5SM -SHRA SCT035 OVC050
     FM230300 13010KT P6SM OVC070
     FM230900 16010KT P6SM SCT020 OVC040=

USA.gov is the U.S. government's official web portal to all federal, state and local government web resources and services.